Terminal Aerodrome Forecast
Issued by NWS

Home | Current Version | Previous Version | Text Only | Print | Product List | Glossary On
Versions: 1 2 3 4 5 6 7 8 9 10 11 12 13 14 15 16 17 18 19 20
000
FTUS46 KMFR 271535 AAB
TAFOTH
TAF AMD
KOTH 271535Z 2716/2812 20008KT P6SM -SHRA SCT020 OVC045
     FM271900 28010KT P6SM VCSH BKN050
     FM280300 15003KT P6SM SCT030 BKN100=

USA.gov is the U.S. government's official web portal to all federal, state and local government web resources and services.